Time;durP1;ratioP1;P1;durP2;ratioP2;P2;SDS_P1;SDS_P2;PMS_P1;PMS_P2;Temp;Humidity;BMP_temperature;BMP_pressure;BME280_temperature;BME280_humidity;BME280_pressure;Samples;Min_cycle;Max_cycle;Signal;HPM_P1;HPM_P2
2022/06/17 00:00:27;;;;;;;;;;;17.80;96.90;;;;;;5072052;28;19924;-70
2022/06/17 00:02:54;;;;;;;;;;;17.90;96.80;;;;;;5072111;28;19932;-70
2022/06/17 00:05:21;;;;;;;;;;;17.80;96.80;;;;;;5072230;28;19928;-70
2022/06/17 00:07:48;;;;;;;;;;;17.90;96.90;;;;;;5072149;28;19925;-70
2022/06/17 00:10:21;;;;;;;;;;;17.90;96.80;;;;;;5074488;28;19931;-70
2022/06/17 00:12:48;;;;;;;;;;;17.80;96.80;;;;;;5076613;28;19986;-70
2022/06/17 00:15:15;;;;;;;;;;;17.70;97.00;;;;;;5076005;28;19924;-71
2022/06/17 00:17:44;;;;;;;;;;;17.80;96.80;;;;;;5076101;28;19929;-71
2022/06/17 00:20:13;;;;;;;;;;;17.80;96.80;;;;;;5075921;28;20623;-71
2022/06/17 00:22:41;;;;;;;;;;;17.70;96.90;;;;;;5075817;28;19978;-71
2022/06/17 00:25:14;;;;;;;;;;;17.80;96.70;;;;;;5075944;28;19925;-71
2022/06/17 00:27:42;;;;;;;;;;;17.80;96.50;;;;;;5075908;28;19985;-71
2022/06/17 00:30:14;;;;;;;;;;;17.70;96.60;;;;;;5076134;28;20046;-71
2022/06/17 00:32:41;;;;;;;;;;;17.70;96.60;;;;;;5075765;28;19958;-71
2022/06/17 00:35:08;;;;;;;;;;;17.60;96.80;;;;;;5075513;28;19940;-70
2022/06/17 00:37:35;;;;;;;;;;;17.60;96.90;;;;;;5075585;28;19925;-71
2022/06/17 00:40:02;;;;;;;;;;;17.70;96.80;;;;;;5075419;28;20334;-71
2022/06/17 00:42:29;;;;;;;;;;;17.60;96.90;;;;;;5075556;28;19929;-71
2022/06/17 00:45:02;;;;;;;;;;;17.60;96.80;;;;;;5075711;28;19929;-72
2022/06/17 00:47:31;;;;;;;;;;;17.60;96.80;;;;;;5075603;28;19964;-72
2022/06/17 00:50:01;;;;;;;;;;;17.50;97.60;;;;;;5075293;28;19932;-72
2022/06/17 00:52:30;;;;;;;;;;;17.20;98.30;;;;;;5075428;28;19925;-72
2022/06/17 00:54:59;;;;;;;;;;;17.00;98.60;;;;;;5075140;28;19925;-72
2022/06/17 00:57:28;;;;;;;;;;;17.20;98.40;;;;;;5075116;28;19924;-72
2022/06/17 01:00:18;;;;;;;;;;;17.20;98.40;;;;;;5075597;28;19928;-72
2022/06/17 01:02:46;;;;;;;;;;;17.40;97.80;;;;;;5075213;28;19977;-72
2022/06/17 01:05:13;;;;;;;;;;;17.20;98.10;;;;;;5075342;28;19924;-72
2022/06/17 01:07:43;;;;;;;;;;;17.30;97.70;;;;;;5075237;28;19959;-72
2022/06/17 01:10:13;;;;;;;;;;;17.40;97.40;;;;;;5074908;28;19971;-72
2022/06/17 01:12:41;;;;;;;;;;;17.20;97.50;;;;;;5074803;28;19924;-72
2022/06/17 01:15:09;;;;;;;;;;;17.10;97.80;;;;;;5075033;28;19924;-72
2022/06/17 01:17:39;;;;;;;;;;;16.90;97.80;;;;;;5074951;28;20273;-72
2022/06/17 01:20:07;;;;;;;;;;;16.90;97.70;;;;;;5074585;28;19928;-72
2022/06/17 01:22:38;;;;;;;;;;;17.10;97.70;;;;;;5074396;28;20016;-72
2022/06/17 01:25:08;;;;;;;;;;;17.20;97.50;;;;;;5074678;28;19924;-72
2022/06/17 01:27:37;;;;;;;;;;;17.10;97.40;;;;;;5074723;28;20463;-72
2022/06/17 01:30:04;;;;;;;;;;;17.10;97.50;;;;;;5074638;28;19978;-72
2022/06/17 01:32:35;;;;;;;;;;;17.10;97.60;;;;;;5074614;28;20392;-72
2022/06/17 01:35:02;;;;;;;;;;;17.00;97.90;;;;;;5074548;28;20445;-72
2022/06/17 01:37:30;;;;;;;;;;;16.90;98.20;;;;;;5074484;28;19928;-72
2022/06/17 01:39:58;;;;;;;;;;;16.60;99.30;;;;;;5074751;28;19925;-72
2022/06/17 01:42:26;;;;;;;;;;;16.50;99.60;;;;;;5074419;28;19971;-72
2022/06/17 01:44:54;;;;;;;;;;;16.30;99.90;;;;;;5074264;28;19924;-72
2022/06/17 01:47:22;;;;;;;;;;;16.30;99.90;;;;;;5074661;28;19924;-72
2022/06/17 01:49:51;;;;;;;;;;;16.20;99.90;;;;;;5074218;28;19925;-72
2022/06/17 01:52:20;;;;;;;;;;;16.40;99.90;;;;;;5074391;28;19969;-72
2022/06/17 01:54:49;;;;;;;;;;;16.50;99.50;;;;;;5074196;28;19928;-72
2022/06/17 01:57:20;;;;;;;;;;;16.50;99.40;;;;;;5074241;28;20334;-72
2022/06/17 01:59:50;;;;;;;;;;;16.50;99.40;;;;;;5074196;28;19932;-72
2022/06/17 02:02:18;;;;;;;;;;;16.50;99.40;;;;;;5074308;28;19928;-72
2022/06/17 02:04:47;;;;;;;;;;;16.20;99.60;;;;;;5074020;28;19929;-72
2022/06/17 02:07:16;;;;;;;;;;;16.00;99.90;;;;;;5074269;28;20345;-72
2022/06/17 02:09:43;;;;;;;;;;;16.10;99.90;;;;;;5073982;28;19928;-72
2022/06/17 02:12:11;;;;;;;;;;;16.20;99.70;;;;;;5073865;28;20296;-72
2022/06/17 02:14:39;;;;;;;;;;;16.20;99.80;;;;;;5073804;28;19970;-72
2022/06/17 02:17:06;;;;;;;;;;;16.10;99.50;;;;;;5073717;28;20288;-72
2022/06/17 02:19:35;;;;;;;;;;;16.10;99.40;;;;;;5073733;28;19932;-72
2022/06/17 02:22:05;;;;;;;;;;;16.10;99.50;;;;;;5074188;28;19935;-72
2022/06/17 02:24:32;;;;;;;;;;;16.00;99.50;;;;;;5073596;28;19925;-72
2022/06/17 02:27:01;;;;;;;;;;;16.00;99.50;;;;;;5073566;28;19977;-72
2022/06/17 02:29:30;;;;;;;;;;;15.90;99.70;;;;;;5073479;28;20378;-72
2022/06/17 02:31:59;;;;;;;;;;;15.80;99.80;;;;;;5073440;28;19939;-72
2022/06/17 02:34:27;;;;;;;;;;;15.80;99.60;;;;;;5073387;28;20392;-72
2022/06/17 02:36:57;;;;;;;;;;;16.00;99.30;;;;;;5072976;28;19932;-72
2022/06/17 02:39:24;;;;;;;;;;;15.90;99.60;;;;;;5073290;28;19970;-72
2022/06/17 02:41:52;;;;;;;;;;;15.80;99.70;;;;;;5073504;28;19928;-72
2022/06/17 02:44:21;;;;;;;;;;;15.80;99.60;;;;;;5073065;28;19985;-72
2022/06/17 02:46:49;;;;;;;;;;;15.80;99.70;;;;;;5073144;28;19985;-72
2022/06/17 02:49:20;;;;;;;;;;;15.70;99.70;;;;;;5073221;28;20011;-72
2022/06/17 02:51:47;;;;;;;;;;;15.70;99.90;;;;;;5073196;28;19924;-73
2022/06/17 02:54:16;;;;;;;;;;;15.70;99.90;;;;;;5073013;28;20346;-72
2022/06/17 02:56:45;;;;;;;;;;;15.70;99.90;;;;;;5072746;28;19935;-72
2022/06/17 02:59:15;;;;;;;;;;;15.70;99.90;;;;;;5072874;28;19928;-72
2022/06/17 03:01:42;;;;;;;;;;;15.60;99.90;;;;;;5072903;28;19968;-72
2022/06/17 03:04:12;;;;;;;;;;;15.60;99.90;;;;;;5073203;28;19925;-72
2022/06/17 03:06:41;;;;;;;;;;;15.60;99.90;;;;;;5072791;28;20308;-72
2022/06/17 03:09:16;;;;;;;;;;;15.40;99.90;;;;;;5072915;28;19924;-72
2022/06/17 03:11:43;;;;;;;;;;;15.40;99.90;;;;;;5072870;28;20372;-72
2022/06/17 03:14:12;;;;;;;;;;;15.40;99.90;;;;;;5072721;28;20373;-72
2022/06/17 03:16:39;;;;;;;;;;;15.30;99.90;;;;;;5072696;28;19924;-72
2022/06/17 03:19:06;;;;;;;;;;;15.40;99.90;;;;;;5072642;28;20403;-72
2022/06/17 03:21:34;;;;;;;;;;;15.30;99.90;;;;;;5072729;28;20351;-72
2022/06/17 03:24:05;;;;;;;;;;;15.30;99.90;;;;;;5072543;28;19981;-72
2022/06/17 03:26:34;;;;;;;;;;;15.30;99.90;;;;;;5072203;28;20273;-72
2022/06/17 03:29:06;;;;;;;;;;;15.30;99.90;;;;;;5072327;28;19925;-72
2022/06/17 03:31:36;;;;;;;;;;;15.30;99.90;;;;;;5072320;28;19932;-72
2022/06/17 03:34:04;;;;;;;;;;;15.30;99.90;;;;;;5072407;28;19925;-72
2022/06/17 03:36:33;;;;;;;;;;;15.20;99.90;;;;;;5072020;28;19928;-72
2022/06/17 03:39:01;;;;;;;;;;;15.00;99.90;;;;;;5072371;28;19925;-72
2022/06/17 03:41:34;;;;;;;;;;;14.90;99.90;;;;;;5072259;28;20461;-72
2022/06/17 03:44:02;;;;;;;;;;;14.90;99.90;;;;;;5071646;28;19928;-72
2022/06/17 03:46:32;;;;;;;;;;;14.90;99.90;;;;;;5071933;28;19970;-72
2022/06/17 03:49:01;;;;;;;;;;;15.00;99.90;;;;;;5072228;28;19974;-72
2022/06/17 03:51:29;;;;;;;;;;;15.10;99.90;;;;;;5071975;28;20457;-72
2022/06/17 04:00:06;;;;;;;;;;;15.20;99.90;;;;;;5029498;28;19955;-71
2022/06/17 04:02:32;;;;;;;;;;;15.10;99.90;;;;;;5062675;28;19928;-71
2022/06/17 04:05:00;;;;;;;;;;;15.10;99.90;;;;;;5071803;28;19925;-72
2022/06/17 04:07:27;;;;;;;;;;;15.10;99.90;;;;;;5072091;28;19966;-71
2022/06/17 04:09:54;;;;;;;;;;;15.20;99.90;;;;;;5071870;28;19925;-71
2022/06/17 04:12:25;;;;;;;;;;;15.30;99.90;;;;;;5071974;28;19978;-71
2022/06/17 04:14:55;;;;;;;;;;;15.20;99.90;;;;;;5071606;28;20423;-70
2022/06/17 04:17:40;;;;;;;;;;;15.20;99.90;;;;;;5071953;28;19932;-71
2022/06/17 04:20:22;;;;;;;;;;;15.40;99.90;;;;;;5071886;28;20134;-71
2022/06/17 04:25:54;;;;;;;;;;;15.50;99.90;;;;;;5071580;28;19920;-71
2022/06/17 04:28:22;;;;;;;;;;;15.50;99.90;;;;;;5071890;28;20392;-71
2022/06/17 04:30:50;;;;;;;;;;;15.60;99.90;;;;;;5071908;28;19978;-71
2022/06/17 04:33:23;;;;;;;;;;;15.60;99.90;;;;;;5072093;28;19925;-71
2022/06/17 04:36:16;;;;;;;;;;;15.60;99.90;;;;;;5072066;28;19925;-71
2022/06/17 04:38:49;;;;;;;;;;;15.50;99.90;;;;;;5071582;28;19981;-71
2022/06/17 04:41:45;;;;;;;;;;;15.50;99.90;;;;;;5071375;28;20019;-71
2022/06/17 04:44:13;;;;;;;;;;;15.60;99.90;;;;;;5071622;28;19924;-73
2022/06/17 04:46:42;;;;;;;;;;;15.60;99.90;;;;;;5071373;28;19930;-72
2022/06/17 04:49:14;;;;;;;;;;;15.70;99.90;;;;;;5071255;28;19925;-72
2022/06/17 04:51:41;;;;;;;;;;;15.60;99.90;;;;;;5071625;28;19970;-71
2022/06/17 04:54:08;;;;;;;;;;;15.60;99.90;;;;;;5071586;28;19994;-70
2022/06/17 04:56:37;;;;;;;;;;;15.60;99.90;;;;;;5073875;28;19971;-71
2022/06/17 04:59:16;;;;;;;;;;;15.60;99.90;;;;;;5075101;28;19929;-71
2022/06/17 05:04:34;;;;;;;;;;;15.60;99.90;;;;;;5074797;28;20461;-73
2022/06/17 05:07:07;;;;;;;;;;;15.80;99.90;;;;;;5074745;28;19929;-72
2022/06/17 05:15:11;;;;;;;;;;;15.90;99.90;;;;;;5071799;28;20023;-71
2022/06/17 05:17:38;;;;;;;;;;;16.10;99.90;;;;;;5074273;28;19924;-71
2022/06/17 05:20:21;;;;;;;;;;;16.10;99.90;;;;;;5075191;28;19924;-71
2022/06/17 05:23:28;;;;;;;;;;;16.00;99.90;;;;;;5074747;28;19942;-70
2022/06/17 05:26:16;;;;;;;;;;;16.20;99.90;;;;;;5074244;28;19935;-72
2022/06/17 05:29:02;;;;;;;;;;;16.20;99.90;;;;;;5074293;28;20009;-72
2022/06/17 05:31:30;;;;;;;;;;;16.10;99.90;;;;;;5074258;28;19978;-72
2022/06/17 05:34:34;;;;;;;;;;;16.20;99.90;;;;;;5074531;28;19929;-72
2022/06/17 05:43:41;;;;;;;;;;;16.50;99.90;;;;;;5074181;28;20482;-72
2022/06/17 05:46:09;;;;;;;;;;;16.50;99.90;;;;;;5073713;28;19970;-72
2022/06/17 05:48:36;;;;;;;;;;;16.50;99.90;;;;;;5074246;28;19932;-72
2022/06/17 05:51:02;;;;;;;;;;;16.60;99.90;;;;;;5074459;28;20277;-72
2022/06/17 05:53:59;;;;;;;;;;;16.80;99.90;;;;;;5074380;28;19924;-71
2022/06/17 05:56:26;;;;;;;;;;;16.70;99.70;;;;;;5073751;28;19987;-71
2022/06/17 05:58:53;;;;;;;;;;;16.80;99.90;;;;;;5073967;28;20284;-71
2022/06/17 06:01:31;;;;;;;;;;;16.90;99.80;;;;;;5073757;28;19928;-71
2022/06/17 06:03:58;;;;;;;;;;;17.00;99.90;;;;;;5074045;28;19932;-73
2022/06/17 06:06:24;;;;;;;;;;;17.00;99.70;;;;;;5073750;28;19935;-72
2022/06/17 06:08:51;;;;;;;;;;;17.20;99.60;;;;;;5073401;28;19924;-71
2022/06/17 06:11:38;;;;;;;;;;;17.40;99.40;;;;;;5073669;28;19924;-71
2022/06/17 06:14:05;;;;;;;;;;;17.50;99.20;;;;;;5073799;28;20361;-71
2022/06/17 06:16:34;;;;;;;;;;;17.50;98.60;;;;;;5073386;28;19955;-71
2022/06/17 06:21:47;;;;;;;;;;;17.60;99.00;;;;;;5054457;28;20372;-72
2022/06/17 06:24:14;;;;;;;;;;;17.90;98.60;;;;;;5073610;28;19928;-72
2022/06/17 06:30:06;;;;;;;;;;;18.00;98.20;;;;;;5073247;28;19939;-72
2022/06/17 06:35:35;;;;;;;;;;;18.20;98.10;;;;;;5030641;28;19980;-71
2022/06/17 06:38:02;;;;;;;;;;;18.40;97.60;;;;;;5070137;28;20146;-72
2022/06/17 06:40:30;;;;;;;;;;;18.40;97.70;;;;;;5073099;28;19947;-73
2022/06/17 06:46:10;;;;;;;;;;;18.50;97.70;;;;;;5072496;28;20062;-71
2022/06/17 06:51:50;;;;;;;;;;;18.80;97.70;;;;;;5050343;28;19928;-71
2022/06/17 06:54:17;;;;;;;;;;;18.60;97.30;;;;;;5072958;28;19978;-71
2022/06/17 06:56:47;;;;;;;;;;;18.90;97.30;;;;;;5072579;28;20270;-71
2022/06/17 06:59:14;;;;;;;;;;;18.90;96.90;;;;;;5072539;28;19924;-71
2022/06/17 07:01:41;;;;;;;;;;;19.10;97.00;;;;;;5072119;28;19974;-71
2022/06/17 07:04:27;;;;;;;;;;;19.10;96.80;;;;;;5072780;28;19978;-71
2022/06/17 07:06:56;;;;;;;;;;;19.20;96.70;;;;;;5070229;28;19924;-72
2022/06/17 07:12:14;;;;;;;;;;;19.70;95.80;;;;;;5067617;28;19932;-72
2022/06/17 07:14:42;;;;;;;;;;;19.40;95.90;;;;;;5072846;28;19931;-72
2022/06/17 07:17:08;;;;;;;;;;;19.40;96.40;;;;;;5072419;28;20453;-72
2022/06/17 07:19:35;;;;;;;;;;;19.50;95.90;;;;;;5071448;28;19928;-72
2022/06/17 07:22:31;;;;;;;;;;;19.60;95.60;;;;;;5072722;28;19931;-72
2022/06/17 07:24:59;;;;;;;;;;;19.80;96.10;;;;;;5072351;28;20238;-72
2022/06/17 07:27:26;;;;;;;;;;;20.00;95.60;;;;;;5072308;28;19928;-72
2022/06/17 07:29:52;;;;;;;;;;;19.90;95.60;;;;;;5072410;28;19924;-72
2022/06/17 07:53:55;;;;;;;;;;;20.60;94.50;;;;;;5029157;28;20064;-72
2022/06/17 08:05:31;;;;;;;;;;;20.90;93.80;;;;;;5071612;28;19920;-71
2022/06/17 08:07:59;;;;;;;;;;;21.10;93.50;;;;;;5072192;28;19970;-72
2022/06/17 08:10:28;;;;;;;;;;;21.20;93.40;;;;;;5071624;28;19935;-72
2022/06/17 08:12:55;;;;;;;;;;;21.50;93.60;;;;;;5071856;28;19985;-72
2022/06/17 08:15:23;;;;;;;;;;;22.20;92.70;;;;;;5071550;28;20350;-71
2022/06/17 08:17:49;;;;;;;;;;;22.30;92.00;;;;;;5071791;28;20038;-71
2022/06/17 08:20:18;;;;;;;;;;;21.70;92.00;;;;;;5072098;28;19928;-71
2022/06/17 08:22:44;;;;;;;;;;;21.90;92.20;;;;;;5071610;28;20331;-71
2022/06/17 08:25:11;;;;;;;;;;;22.30;91.20;;;;;;5071555;28;19925;-72
2022/06/17 08:53:22;;;;;;;;;;;24.00;86.50;;;;;;5058500;28;19973;-72
2022/06/17 08:56:08;;;;;;;;;;;23.50;88.60;;;;;;5074939;28;20018;-73
2022/06/17 09:44:37;;;;;;;;;;;29.30;71.90;;;;;;5051705;28;19931;-72
2022/06/17 09:47:06;;;;;;;;;;;27.70;73.90;;;;;;5051842;28;20387;-72
2022/06/17 09:49:37;;;;;;;;;;;27.40;75.40;;;;;;5073651;28;19929;-72
2022/06/17 09:52:06;;;;;;;;;;;28.00;74.80;;;;;;5074099;28;19925;-72
2022/06/17 09:54:36;;;;;;;;;;;28.30;73.10;;;;;;5074582;28;19970;-72
2022/06/17 09:57:08;;;;;;;;;;;27.90;74.70;;;;;;5073869;28;19925;-72
2022/06/17 09:59:39;;;;;;;;;;;29.40;72.60;;;;;;5073953;28;19925;-72
2022/06/17 10:02:14;;;;;;;;;;;30.80;70.90;;;;;;5074012;28;19924;-72
2022/06/17 10:04:41;;;;;;;;;;;30.60;69.80;;;;;;5074196;28;19924;-74
2022/06/17 10:07:14;;;;;;;;;;;31.20;69.80;;;;;;5073693;28;19977;-74
2022/06/17 10:10:06;;;;;;;;;;;29.00;73.70;;;;;;5074161;28;20380;-73
2022/06/17 10:12:36;;;;;;;;;;;30.00;70.40;;;;;;5074019;28;19928;-73
2022/06/17 10:18:32;;;;;;;;;;;31.10;69.90;;;;;;5039960;28;19948;-74
2022/06/17 10:27:20;;;;;;;;;;;31.70;66.20;;;;;;5072733;28;19957;-73
2022/06/17 10:33:12;;;;;;;;;;;32.50;65.40;;;;;;5073175;28;19919;-73
2022/06/17 10:39:14;;;;;;;;;;;31.30;65.90;;;;;;5072607;28;19924;-72
2022/06/17 10:41:41;;;;;;;;;;;32.60;66.60;;;;;;5072957;28;19946;-73
2022/06/17 10:50:18;;;;;;;;;;;33.30;64.20;;;;;;5073130;28;19965;-72
2022/06/17 10:52:47;;;;;;;;;;;31.60;64.40;;;;;;5072997;28;19978;-73
2022/06/17 10:55:18;;;;;;;;;;;30.80;67.40;;;;;;5072305;28;19978;-73
2022/06/17 10:58:00;;;;;;;;;;;32.40;66.30;;;;;;5072450;28;19928;-72
2022/06/17 11:00:27;;;;;;;;;;;33.40;62.70;;;;;;5072197;28;19935;-72
2022/06/17 11:02:54;;;;;;;;;;;33.90;62.00;;;;;;5072324;28;19934;-71
2022/06/17 11:05:29;;;;;;;;;;;34.30;62.60;;;;;;5072087;28;20281;-71
2022/06/17 11:07:57;;;;;;;;;;;35.10;61.00;;;;;;5072390;28;19931;-73
2022/06/17 11:10:27;;;;;;;;;;;34.70;60.60;;;;;;5072317;28;19925;-73
2022/06/17 11:12:56;;;;;;;;;;;33.40;61.70;;;;;;5072281;28;19977;-73
2022/06/17 11:15:25;;;;;;;;;;;32.80;62.50;;;;;;5071968;28;19929;-73
2022/06/17 11:17:54;;;;;;;;;;;32.30;62.60;;;;;;5072413;28;19931;-72
2022/06/17 11:20:23;;;;;;;;;;;31.40;63.90;;;;;;5072221;28;20453;-72
2022/06/17 11:22:51;;;;;;;;;;;32.40;63.20;;;;;;5072367;28;19925;-72
2022/06/17 11:25:22;;;;;;;;;;;33.90;60.60;;;;;;5071953;28;20325;-73
2022/06/17 11:27:54;;;;;;;;;;;32.90;59.90;;;;;;5072283;28;19970;-73
2022/06/17 11:30:24;;;;;;;;;;;31.80;62.30;;;;;;5072284;28;19924;-72
2022/06/17 11:32:51;;;;;;;;;;;32.80;61.40;;;;;;5072228;28;19962;-72
2022/06/17 11:35:20;;;;;;;;;;;32.10;62.30;;;;;;5072040;28;19930;-73
2022/06/17 11:37:48;;;;;;;;;;;30.70;65.10;;;;;;5072283;28;19932;-71
2022/06/17 11:40:16;;;;;;;;;;;32.70;61.00;;;;;;5071867;28;19931;-72
2022/06/17 11:45:56;;;;;;;;;;;32.50;62.20;;;;;;5011011;22;20019;-75
2022/06/17 11:48:23;;;;;;;;;;;30.30;65.70;;;;;;5052135;28;19925;-75
2022/06/17 11:51:04;;;;;;;;;;;32.10;63.40;;;;;;5052006;28;19925;-74
2022/06/17 11:53:31;;;;;;;;;;;30.30;64.10;;;;;;5051941;28;19933;-75
2022/06/17 11:55:58;;;;;;;;;;;32.00;64.10;;;;;;5051727;28;19975;-74
2022/06/17 11:58:24;;;;;;;;;;;32.10;63.30;;;;;;5051705;28;19925;-76
2022/06/17 12:00:53;;;;;;;;;;;31.50;65.00;;;;;;5051790;28;19929;-75
2022/06/17 12:03:22;;;;;;;;;;;33.40;64.20;;;;;;5051699;28;20332;-74
2022/06/17 12:05:57;;;;;;;;;;;34.50;62.40;;;;;;5051089;28;19925;-75
2022/06/17 12:08:26;;;;;;;;;;;33.80;63.30;;;;;;5050540;28;19978;-75
2022/06/17 12:10:55;;;;;;;;;;;34.10;61.60;;;;;;5051635;28;19971;-75
2022/06/17 12:13:27;;;;;;;;;;;34.60;60.80;;;;;;5051703;28;20392;-75
2022/06/17 12:15:55;;;;;;;;;;;35.60;59.20;;;;;;5051807;28;19986;-75
2022/06/17 12:18:26;;;;;;;;;;;33.50;62.60;;;;;;5051963;28;19925;-75
2022/06/17 12:21:06;;;;;;;;;;;31.00;63.20;;;;;;5051876;28;19948;-74
2022/06/17 12:23:38;;;;;;;;;;;32.80;62.20;;;;;;5051671;28;19925;-74
2022/06/17 12:26:10;;;;;;;;;;;34.50;62.20;;;;;;5051452;28;19978;-75
2022/06/17 12:28:41;;;;;;;;;;;34.80;58.50;;;;;;5051644;28;19925;-75
2022/06/17 12:31:14;;;;;;;;;;;35.10;59.30;;;;;;5051030;28;20407;-75
2022/06/17 12:33:45;;;;;;;;;;;35.30;59.20;;;;;;5051058;28;19991;-75
2022/06/17 12:36:14;;;;;;;;;;;35.70;59.20;;;;;;5051020;28;19924;-75
2022/06/17 12:38:45;;;;;;;;;;;35.80;59.70;;;;;;5050970;28;19979;-77
2022/06/17 12:41:15;;;;;;;;;;;36.30;59.00;;;;;;5051212;28;19925;-75
2022/06/17 12:43:46;;;;;;;;;;;36.40;58.60;;;;;;5051558;28;19928;-75
2022/06/17 12:46:16;;;;;;;;;;;36.00;57.80;;;;;;5049911;28;19955;-75
2022/06/17 12:48:49;;;;;;;;;;;36.50;58.40;;;;;;5048855;28;19979;-75
2022/06/17 12:54:08;;;;;;;;;;;37.40;57.20;;;;;;5048681;28;20050;-76
2022/06/17 12:56:40;;;;;;;;;;;37.00;57.70;;;;;;5048617;28;20407;-76
2022/06/17 12:59:13;;;;;;;;;;;35.80;57.70;;;;;;5049274;28;19925;-75
2022/06/17 13:01:42;;;;;;;;;;;34.00;58.10;;;;;;5050473;28;19933;-74
2022/06/17 13:04:16;;;;;;;;;;;35.40;57.70;;;;;;5052120;28;19924;-77
2022/06/17 13:06:50;;;;;;;;;;;35.90;56.60;;;;;;5051635;28;19924;-74
2022/06/17 13:09:22;;;;;;;;;;;36.50;57.20;;;;;;5051826;28;19924;-75
2022/06/17 13:11:55;;;;;;;;;;;36.80;58.30;;;;;;5051502;28;19924;-74
2022/06/17 13:14:25;;;;;;;;;;;36.80;58.00;;;;;;5051413;28;19978;-79
2022/06/17 13:16:56;;;;;;;;;;;35.10;57.70;;;;;;5051406;28;19933;-75
2022/06/17 13:19:43;;;;;;;;;;;35.40;58.70;;;;;;5055281;28;19925;-77
2022/06/17 13:22:14;;;;;;;;;;;34.60;59.00;;;;;;5054838;28;19925;-75
2022/06/17 13:24:46;;;;;;;;;;;35.80;59.80;;;;;;5054793;28;19925;-76
2022/06/17 13:27:16;;;;;;;;;;;36.50;57.60;;;;;;5054797;28;19925;-76
2022/06/17 13:29:47;;;;;;;;;;;34.20;60.10;;;;;;5054798;28;19978;-76
2022/06/17 13:32:17;;;;;;;;;;;33.00;62.20;;;;;;5054648;28;19924;-74
2022/06/17 13:34:48;;;;;;;;;;;32.50;61.80;;;;;;5054531;28;20352;-74
2022/06/17 13:37:17;;;;;;;;;;;33.20;60.60;;;;;;5054451;28;19924;-74
2022/06/17 13:39:46;;;;;;;;;;;31.90;61.80;;;;;;5054217;28;20028;-74
2022/06/17 13:42:14;;;;;;;;;;;33.20;60.70;;;;;;5054267;28;19929;-74
2022/06/17 13:44:46;;;;;;;;;;;34.90;59.30;;;;;;5054267;28;19959;-75
2022/06/17 13:47:17;;;;;;;;;;;34.50;59.60;;;;;;5054271;28;19979;-77
2022/06/17 13:49:49;;;;;;;;;;;36.00;57.70;;;;;;5054103;28;19929;-74
2022/06/17 13:52:20;;;;;;;;;;;35.10;59.00;;;;;;5054207;28;19928;-76
2022/06/17 13:54:50;;;;;;;;;;;35.70;58.40;;;;;;5054255;28;19933;-74
2022/06/17 13:57:22;;;;;;;;;;;35.50;57.90;;;;;;5054635;28;19929;-74
2022/06/17 13:59:53;;;;;;;;;;;35.00;57.60;;;;;;5053922;28;19925;-74
2022/06/17 14:02:26;;;;;;;;;;;34.80;59.10;;;;;;5053945;28;20424;-74
2022/06/17 14:05:14;;;;;;;;;;;36.00;58.50;;;;;;5053911;28;19979;-74
2022/06/17 14:08:00;;;;;;;;;;;35.30;57.90;;;;;;5054231;28;19933;-76
2022/06/17 14:10:29;;;;;;;;;;;35.10;59.60;;;;;;5054207;28;19931;-74
2022/06/17 14:12:56;;;;;;;;;;;35.90;58.50;;;;;;5054059;28;19994;-74
2022/06/17 14:15:29;;;;;;;;;;;33.90;58.80;;;;;;5053507;28;19929;-75
2022/06/17 14:17:57;;;;;;;;;;;32.10;60.60;;;;;;5053652;28;19924;-74
2022/06/17 14:20:29;;;;;;;;;;;32.20;62.50;;;;;;5053506;28;20351;-73
2022/06/17 14:23:10;;;;;;;;;;;32.50;61.60;;;;;;5053547;28;19978;-77
2022/06/17 14:25:57;;;;;;;;;;;34.20;59.80;;;;;;5051536;28;19925;-74
2022/06/17 14:28:35;;;;;;;;;;;34.00;59.20;;;;;;5053315;28;20015;-77
2022/06/17 14:31:13;;;;;;;;;;;32.60;60.00;;;;;;5053256;28;19982;-74
2022/06/17 14:33:57;;;;;;;;;;;32.20;60.50;;;;;;5053513;28;19925;-74
2022/06/17 14:36:38;;;;;;;;;;;32.80;60.20;;;;;;5053190;28;19975;-74
2022/06/17 14:39:08;;;;;;;;;;;33.30;60.40;;;;;;5052884;28;19925;-74
2022/06/17 14:44:26;;;;;;;;;;;32.60;59.60;;;;;;5053038;28;20415;-74
2022/06/17 14:47:11;;;;;;;;;;;34.00;59.20;;;;;;5053080;28;20369;-74
2022/06/17 14:49:43;;;;;;;;;;;34.00;58.90;;;;;;5052920;28;19932;-73
2022/06/17 14:52:23;;;;;;;;;;;33.70;57.50;;;;;;5053148;28;19986;-74
2022/06/17 14:54:58;;;;;;;;;;;34.20;57.50;;;;;;5052989;28;20388;-74
2022/06/17 14:57:26;;;;;;;;;;;35.00;57.50;;;;;;5052858;28;20367;-74
2022/06/17 15:00:01;;;;;;;;;;;33.70;58.30;;;;;;5052737;28;19947;-74
2022/06/17 15:02:36;;;;;;;;;;;34.20;59.00;;;;;;5053042;28;19924;-74
2022/06/17 15:05:03;;;;;;;;;;;33.80;59.30;;;;;;5052707;28;20192;-73
2022/06/17 15:07:34;;;;;;;;;;;32.70;59.50;;;;;;5052899;28;19924;-73
2022/06/17 15:10:04;;;;;;;;;;;32.90;60.00;;;;;;5052377;28;19949;-73
2022/06/17 15:12:32;;;;;;;;;;;34.00;58.80;;;;;;5052577;28;20550;-73
2022/06/17 15:15:07;;;;;;;;;;;34.20;59.00;;;;;;5052355;28;19925;-74
2022/06/17 15:17:37;;;;;;;;;;;33.90;58.90;;;;;;5052322;28;19928;-73
2022/06/17 15:20:05;;;;;;;;;;;34.80;59.30;;;;;;5052077;28;19924;-73
2022/06/17 15:22:33;;;;;;;;;;;32.90;60.60;;;;;;5052200;28;19924;-74
2022/06/17 15:25:16;;;;;;;;;;;33.60;59.80;;;;;;5052199;28;19925;-73
2022/06/17 15:27:46;;;;;;;;;;;33.80;60.90;;;;;;5052362;28;20011;-73
2022/06/17 15:30:20;;;;;;;;;;;33.90;59.30;;;;;;5052069;28;19925;-73
2022/06/17 15:32:48;;;;;;;;;;;34.20;58.60;;;;;;5052387;28;19925;-73
2022/06/17 15:35:18;;;;;;;;;;;34.20;57.90;;;;;;5052346;28;19979;-74
2022/06/17 15:37:48;;;;;;;;;;;32.60;58.00;;;;;;5052376;28;20461;-74
2022/06/17 15:40:21;;;;;;;;;;;32.50;59.40;;;;;;5051726;28;20402;-74
2022/06/17 15:42:56;;;;;;;;;;;32.80;59.50;;;;;;5051973;28;19925;-73
2022/06/17 15:45:23;;;;;;;;;;;32.20;59.90;;;;;;5051750;28;20345;-73
2022/06/17 15:47:54;;;;;;;;;;;31.40;59.80;;;;;;5052000;28;19987;-73
2022/06/17 15:50:21;;;;;;;;;;;31.50;59.60;;;;;;5051974;28;20384;-74
2022/06/17 15:52:48;;;;;;;;;;;31.40;60.20;;;;;;5051814;28;19978;-73
2022/06/17 15:55:16;;;;;;;;;;;31.40;59.70;;;;;;5051588;28;19979;-73
2022/06/17 15:57:54;;;;;;;;;;;31.40;60.10;;;;;;5051608;28;19924;-73
2022/06/17 16:00:22;;;;;;;;;;;31.10;60.40;;;;;;5051438;28;19932;-73
2022/06/17 16:02:50;;;;;;;;;;;31.30;60.80;;;;;;5051858;28;19925;-73
2022/06/17 16:05:19;;;;;;;;;;;31.60;60.30;;;;;;5051383;28;19971;-73
2022/06/17 16:07:50;;;;;;;;;;;31.70;60.80;;;;;;5051470;28;19925;-73
2022/06/17 16:10:21;;;;;;;;;;;32.10;61.40;;;;;;5051454;28;19979;-73
2022/06/17 16:12:51;;;;;;;;;;;31.90;62.00;;;;;;5051351;28;20381;-73
2022/06/17 16:15:31;;;;;;;;;;;32.10;61.40;;;;;;5051597;28;19924;-74
2022/06/17 16:18:18;;;;;;;;;;;31.80;62.00;;;;;;5051511;28;20384;-73
2022/06/17 16:20:45;;;;;;;;;;;31.60;61.20;;;;;;5051032;28;19932;-73
2022/06/17 16:23:22;;;;;;;;;;;31.50;62.40;;;;;;5051252;28;20408;-73
2022/06/17 16:25:49;;;;;;;;;;;31.10;63.10;;;;;;5051163;28;20363;-73
2022/06/17 16:28:26;;;;;;;;;;;31.60;62.80;;;;;;5051501;28;19925;-73
2022/06/17 16:30:54;;;;;;;;;;;31.50;62.00;;;;;;5051329;28;20289;-73
2022/06/17 16:33:24;;;;;;;;;;;31.60;62.30;;;;;;5051692;28;20023;-73
2022/06/17 16:35:54;;;;;;;;;;;31.00;62.50;;;;;;5050907;28;19955;-73
2022/06/17 16:38:22;;;;;;;;;;;31.10;63.00;;;;;;5051821;28;19925;-73
2022/06/17 16:44:08;;;;;;;;;;;31.10;63.00;;;;;;5051834;28;20088;-73
2022/06/17 16:46:35;;;;;;;;;;;31.00;64.10;;;;;;5050865;28;20387;-73
2022/06/17 16:49:02;;;;;;;;;;;30.30;64.80;;;;;;5051044;28;20502;-73
2022/06/17 16:51:30;;;;;;;;;;;30.50;64.30;;;;;;5052285;28;19925;-73
2022/06/17 16:53:58;;;;;;;;;;;30.60;64.20;;;;;;5055107;28;19982;-73
2022/06/17 16:56:26;;;;;;;;;;;30.40;65.30;;;;;;5054962;28;19928;-73
2022/06/17 16:58:55;;;;;;;;;;;30.40;65.10;;;;;;5055290;28;19929;-73
2022/06/17 17:01:22;;;;;;;;;;;30.40;64.90;;;;;;5055015;28;19928;-73
2022/06/17 17:03:49;;;;;;;;;;;30.10;65.10;;;;;;5055036;28;19963;-73
2022/06/17 17:06:17;;;;;;;;;;;29.80;66.00;;;;;;5054872;28;19924;-73
2022/06/17 17:08:44;;;;;;;;;;;30.00;66.10;;;;;;5055094;28;19964;-73
2022/06/17 17:11:11;;;;;;;;;;;29.90;66.10;;;;;;5054823;28;19925;-73
2022/06/17 17:13:38;;;;;;;;;;;29.90;66.30;;;;;;5055320;28;19925;-73
2022/06/17 17:16:06;;;;;;;;;;;29.70;67.10;;;;;;5054609;28;19924;-73
2022/06/17 17:18:33;;;;;;;;;;;29.70;66.70;;;;;;5054740;28;19925;-74
2022/06/17 17:21:01;;;;;;;;;;;29.60;66.50;;;;;;5054614;28;19954;-74
2022/06/17 17:23:30;;;;;;;;;;;29.30;67.20;;;;;;5054708;28;19932;-73
2022/06/17 17:25:57;;;;;;;;;;;29.30;66.90;;;;;;5054261;28;19924;-73
2022/06/17 17:28:26;;;;;;;;;;;29.40;67.60;;;;;;5054482;28;19925;-73
2022/06/17 17:30:54;;;;;;;;;;;30.00;67.80;;;;;;5054975;28;19935;-73
2022/06/17 17:33:23;;;;;;;;;;;30.20;67.30;;;;;;5054421;28;20363;-73
2022/06/17 17:35:51;;;;;;;;;;;30.60;66.30;;;;;;5054537;28;19939;-73